Airfield :







YOU CAN JOIN US ON...

 
LOGIN :

Register | Disclaimer

   EN    FR    IT 

 









Legend :    VFR   Marginal VFR   IFR   Intensive IFR   Very Intensive IFR
Visi :
Ceiling :
>= 8 km
>= 3000ft
5 to 8 km
1000 to 3000 ft
1500m to 5 km
500 to 1000 ft
800 to 1500m
200 to 500 ft
< 800m
< 200 ft
Symbols :   Thunderstorms  Fog  Heavy snow  Heavy precipitations  Wind > 20 kt






- Airport Elevation : 129 ft
- IATA code : YVP


CYVP - Kuujjuak

CURRENT METAR :
  • 090800Z 28005KT 210V300 15SM SCT075 BKN120 11/10 A2987 RMK AC4AC3 SLP120

EXPIRED METARs :
  • 090700Z 27004KT 220V300 15SM FEW060 BKN080 BKN120 BKN250 11/09 A2988 RMK SC2AC4AC1CI1 CI TR SLP122
  • 090600Z 28005KT 230V300 15SM FEW060 SCT077 BKN120 BKN250 11/09 A2988 RMK SC2AC2AC2CI1 SLP122

TAF TAF CYVP
Valid from the 09 at 06:00 until the 09 at 18:00 UTC


090540Z 0906/0918 28010KT P6SM FEW020 BKN060
TEMPO 0906/0910 6SM -SHRA BR BKN020 BKN060
FM091400 23012G22KT P6SM BKN060 RMK NXT FCST BY 091200Z
CZUL FIR / North America



MET'MAP, your aeronautical weather chart ! - Copyright ORBIFLY December 2007 - Disclaimer

ORBIFLY MET'MAP TEAM :

Programming & Development : Alexandra Zaïnal
Original concept : Baudouin d'Aumeries
Technical & hardware support : Manuel Goepfert
Assistance : Marc-Olivier Méhu




SOURCES & CREDITS :

   NOAA